createdAt,value
2023-04-16T00:00:02.361Z,8.6
2023-04-16T00:15:02.692Z,8.6
2023-04-16T00:30:03.123Z,8.5
2023-04-16T00:45:02.679Z,8.4
2023-04-16T01:00:03.021Z,8.4
2023-04-16T01:15:02.650Z,8.3
2023-04-16T01:30:02.913Z,8.2
2023-04-16T01:45:02.321Z,8.1
2023-04-16T02:00:02.771Z,7.9
2023-04-16T02:15:03.351Z,7.7
2023-04-16T02:30:02.720Z,7.6
2023-04-16T02:45:03.193Z,7.6
2023-04-16T03:00:02.713Z,7.5
2023-04-16T03:15:02.947Z,7.5
2023-04-16T03:30:02.396Z,7.3
2023-04-16T03:45:02.854Z,7.3
2023-04-16T04:00:02.239Z,7.1
2023-04-16T04:15:02.738Z,7.0
2023-04-16T04:30:02.157Z,7.0
2023-04-16T04:45:02.720Z,6.9
2023-04-16T05:00:03.006Z,6.9
2023-04-16T05:15:02.458Z,7.0
2023-04-16T05:30:02.987Z,7.0
2023-04-16T05:45:02.336Z,7.0
2023-04-16T06:00:02.798Z,7.1
2023-04-16T06:15:03.228Z,7.3
2023-04-16T06:30:02.742Z,7.4
2023-04-16T06:45:03.084Z,7.5
2023-04-16T07:00:02.744Z,7.6
2023-04-16T07:15:02.988Z,7.8
2023-04-16T07:30:02.458Z,8.2
2023-04-16T07:45:02.852Z,8.6
2023-04-16T08:00:02.296Z,9.1
2023-04-16T08:15:02.789Z,9.5
2023-04-16T08:30:02.199Z,9.7
2023-04-16T08:45:02.790Z,10.0
2023-04-16T09:00:03.041Z,10.0
2023-04-16T09:15:02.492Z,10.4
2023-04-16T09:30:02.955Z,10.4
2023-04-16T09:45:04.994Z,10.7
2023-04-16T10:15:03.277Z,10.7
2023-04-16T10:30:02.809Z,10.7
2023-04-16T10:45:03.149Z,11.3
2023-04-16T11:00:02.814Z,11.6
2023-04-16T11:15:03.037Z,12.1
2023-04-16T11:30:02.486Z,12.6
2023-04-16T11:45:02.920Z,12.7
2023-04-16T12:00:03.957Z,12.5
2023-04-16T12:15:02.826Z,12.5
2023-04-16T12:30:02.212Z,12.7
2023-04-16T12:45:02.830Z,12.9
2023-04-16T13:00:03.127Z,13.2
2023-04-16T13:15:02.541Z,13.1
2023-04-16T13:30:02.992Z,12.8
2023-04-16T13:45:02.408Z,13.1
2023-04-16T14:00:02.830Z,13.6
2023-04-16T14:15:02.294Z,13.4
2023-04-16T14:30:02.831Z,13.4
2023-04-16T14:45:02.176Z,13.4
2023-04-16T15:00:02.574Z,13.5
2023-04-16T15:15:03.015Z,13.2
2023-04-16T15:30:02.468Z,13.0
2023-04-16T15:45:02.878Z,13.1
2023-04-16T16:15:02.865Z,13.1
2023-04-16T16:30:02.194Z,13.0
2023-04-16T16:45:02.795Z,12.9
2023-04-16T17:00:03.062Z,12.9
2023-04-16T17:15:02.465Z,12.7
2023-04-16T17:30:02.910Z,12.6
2023-04-16T17:45:02.325Z,12.6
2023-04-16T18:00:02.893Z,12.4
2023-04-16T18:15:02.231Z,12.1
2023-04-16T18:30:04.353Z,11.7
2023-04-16T18:45:03.817Z,11.4
2023-04-16T19:00:02.473Z,11.1
2023-04-16T19:15:02.937Z,10.6
2023-04-16T19:30:02.374Z,10.5
2023-04-16T19:45:02.910Z,10.4
2023-04-16T20:00:02.265Z,10.5
2023-04-16T20:15:02.923Z,10.5
2023-04-16T20:30:02.229Z,10.7
2023-04-16T20:45:02.542Z,10.7
2023-04-16T21:00:03.013Z,10.6
2023-04-16T21:15:02.437Z,10.5
2023-04-16T21:30:02.928Z,10.5
2023-04-16T21:45:02.429Z,10.4
2023-04-16T22:00:02.928Z,10.3
2023-04-16T22:15:03.134Z,10.2
2023-04-16T22:30:02.645Z,10.1
2023-04-16T22:45:03.083Z,9.9
2023-04-16T23:00:02.476Z,9.7
2023-04-16T23:15:02.941Z,9.6
2023-04-16T23:30:02.347Z,9.5
2023-04-16T23:45:02.954Z,9.3
